Search for airport 
image banner adimage banner adimage banner ad
image banner ad

0O9 - Ward Field

Located in Gasquet, United States

ICAO - 0O9, IATA -

Data provided by Airmate  

General information

Coordinates: N41°50'44" W123°59'5"
Elevation is 356 feet MSL.
Magnetic variation is 18° East
View others Airports in California

Operational data

Special qualification required
Current time UTC:
Current local time:
Weather at : KCEC - Jack Mc Namara Field ( 22 km )
TAF: KCEC 240528Z 2406/2506 VRB05KT 6SM BR OVC007 FM240900 VRB04KT 4SM BR OVC005 FM241900 20008KT 6SM HZ BR BKN007 FM250300 18006KT 4SM BR OVC005
View NOTAMs / SUP AIP / TFR affecting this airport [VIEW]
Communications frequencies: [VIEW]

Runways:

RWY identifierQFULength (ft)Width (ft)SurfaceLDA (ft)
06299050ASPH
24299050ASPH

Airport contact information

Address: Gasquet United States

Satellite view of 0O9